Time;durP1;ratioP1;P1;durP2;ratioP2;P2;SDS_P1;SDS_P2;PMS_P1;PMS_P2;Temp;Humidity;BMP_temperature;BMP_pressure;BME280_temperature;BME280_humidity;BME280_pressure;Samples;Min_cycle;Max_cycle;Signal;HPM_P1;HPM_P2
2022/04/07 00:01:58;;;;;;;31.48;4.75;;;;;;;;;;5072696;28;20036;-64
2022/04/07 00:04:23;;;;;;;27.50;4.30;;;10.20;99.90;;;;;;5063837;28;20052;-64
2022/04/07 00:06:49;;;;;;;28.42;3.97;;;;;;;;;;5058228;28;20033;-64
2022/04/07 00:09:15;;;;;;;17.52;3.03;;;;;;;;;;5061957;28;20116;-64
2022/04/07 00:11:42;;;;;;;32.42;4.18;;;;;;;;;;5072562;28;20082;-65
2022/04/07 00:14:08;;;;;;;25.45;3.53;;;;;;;;;;5063565;28;20123;-64
2022/04/07 00:16:34;;;;;;;27.48;4.57;;;;;;;;;;5071444;28;20044;-64
2022/04/07 00:19:00;;;;;;;29.52;4.10;;;;;;;;;;5067814;28;20106;-65
2022/04/07 00:21:35;;;;;;;31.30;4.00;;;;;;;;;;5054266;28;20037;-64
2022/04/07 00:24:02;;;;;;;27.05;3.95;;;;;;;;;;5062088;28;20036;-64
2022/04/07 00:26:29;;;;;;;31.58;4.65;;;;;;;;;;5064405;28;20131;-64
2022/04/07 00:28:55;;;;;;;27.05;3.90;;;;;;;;;;5056795;28;20393;-64
2022/04/07 00:31:21;;;;;;;30.95;3.92;;;;;;;;;;5073502;28;20503;-64
2022/04/07 00:33:47;;;;;;;28.58;3.92;;;;;;;;;;5056370;28;20041;-64
2022/04/07 00:36:13;;;;;;;30.95;5.30;;;;;;;;;;5071971;28;20102;-65
2022/04/07 00:38:39;;;;;;;30.00;4.13;;;8.90;99.90;;;;;;5071917;28;20043;-64
2022/04/07 00:41:05;;;;;;;39.00;5.18;;;;;;;;;;5069226;28;20036;-64
2022/04/07 00:43:32;;;;;;;33.13;4.05;;;;;;;;;;5072091;28;20048;-64
2022/04/07 00:45:59;;;;;;;38.08;4.60;;;;;;;;;;5068638;28;20036;-64
2022/04/07 00:48:26;;;;;;;24.75;3.60;;;;;;;;;;5071688;28;20044;-64
2022/04/07 00:50:53;;;;;;;35.97;4.22;;;;;;;;;;5058387;28;20473;-64
2022/04/07 00:53:19;;;;;;;37.80;5.00;;;8.40;99.90;;;;;;5069084;28;20037;-64
2022/04/07 00:55:45;;;;;;;41.00;5.30;;;;;;;;;;5060620;28;20409;-64
2022/04/07 00:58:12;;;;;;;30.42;4.28;;;;;;;;;;5058939;28;20052;-64
2022/04/07 01:00:38;;;;;;;27.13;3.97;;;;;;;;;;5064919;28;20045;-64
2022/04/07 01:03:04;;;;;;;28.75;4.20;;;;;;;;;;5071396;28;20036;-64
2022/04/07 01:05:31;;;;;;;30.90;5.30;;;;;;;;;;5065583;28;20052;-64
2022/04/07 01:07:57;;;;;;;31.38;4.60;;;;;;;;;;5053672;28;20044;-64
2022/04/07 01:10:25;;;;;;;33.95;4.60;;;;;;;;;;5063499;28;20380;-64
2022/04/07 01:12:51;;;;;;;32.60;4.82;;;;;;;;;;5066570;28;20037;-64
2022/04/07 01:15:17;;;;;;;41.05;5.18;;;;;;;;;;5055348;28;20041;-64
2022/04/07 01:17:43;;;;;;;35.17;6.47;;;;;;;;;;5055712;28;20549;-64
2022/04/07 01:20:10;;;;;;;34.75;4.72;;;9.30;99.90;;;;;;5060244;28;20499;-64
2022/04/07 01:22:40;;;;;;;36.72;6.25;;;9.40;99.90;;;;;;5072436;28;20040;-64
2022/04/07 01:25:07;;;;;;;36.33;5.18;;;10.00;99.90;;;;;;5050387;28;20076;-64
2022/04/07 01:27:33;;;;;;;37.33;4.93;;;;;;;;;;5070647;28;20075;-64
2022/04/07 01:30:03;;;;;;;38.50;5.00;;;;;;;;;;5057996;28;20044;-64
2022/04/07 01:32:37;;;;;;;37.65;5.82;;;;;;;;;;5069517;28;20060;-64
2022/04/07 01:35:03;;;;;;;28.48;5.18;;;8.70;99.90;;;;;;5067778;28;20044;-64
2022/04/07 01:37:30;;;;;;;35.28;4.53;;;;;;;;;;5055488;28;20037;-64
2022/04/07 01:39:56;;;;;;;37.28;5.50;;;;;;;;;;5056046;28;20036;-64
2022/04/07 01:42:22;;;;;;;40.28;6.60;;;;;;;;;;5070634;28;20048;-64
2022/04/07 01:44:50;;;;;;;41.30;5.20;;;;;;;;;;5056979;28;20102;-64
2022/04/07 01:47:20;;;;;;;39.15;4.75;;;;;;;;;;5068740;28;20102;-65
2022/04/07 01:49:47;;;;;;;38.75;4.88;;;;;;;;;;5068316;28;20479;-64
2022/04/07 01:52:13;;;;;;;50.28;5.18;;;;;;;;;;5053827;28;20485;-64
2022/04/07 01:54:42;;;;;;;37.55;5.65;;;9.20;99.90;;;;;;5084329;28;20033;-64
2022/04/07 01:57:09;;;;;;;36.13;6.53;;;10.10;99.90;;;;;;5056241;28;20028;-64
2022/04/07 01:59:36;;;;;;;46.38;6.65;;;9.30;99.90;;;;;;5054907;28;20041;-64
2022/04/07 02:02:02;;;;;;;36.80;4.43;;;;;;;;;;5062940;28;20041;-64
2022/04/07 02:04:28;;;;;;;39.92;5.35;;;;;;;;;;5061833;28;20048;-65
2022/04/07 02:06:54;;;;;;;39.53;5.13;;;;;;;;;;5068273;28;20119;-64
2022/04/07 02:09:20;;;;;;;36.78;5.40;;;;;;;;;;5069958;28;20071;-64
2022/04/07 02:11:47;;;;;;;35.00;5.32;;;;;;;;;;5047943;28;20040;-65
2022/04/07 02:14:13;;;;;;;47.22;5.97;;;9.40;99.90;;;;;;5061460;28;20481;-64
2022/04/07 02:16:39;;;;;;;44.70;5.55;;;;;;;;;;5058521;28;20036;-64
2022/04/07 02:19:05;;;;;;;42.20;6.43;;;;;;;;;;5051992;28;20032;-64
2022/04/07 02:21:31;;;;;;;38.28;5.40;;;;;;;;;;5054558;28;20041;-64
2022/04/07 02:23:58;;;;;;;51.55;6.75;;;;;;;;;;5052638;28;20040;-64
2022/04/07 02:26:24;;;;;;;42.35;5.70;;;;;;;;;;5066933;28;20059;-64
2022/04/07 02:28:50;;;;;;;40.70;5.38;;;;;;;;;;5070044;28;20072;-64
2022/04/07 02:31:16;;;;;;;37.78;4.70;;;8.50;99.90;;;;;;5062306;28;20518;-64
2022/04/07 02:33:42;;;;;;;47.47;6.18;;;;;;;;;;5053280;28;20103;-64
2022/04/07 02:36:09;;;;;;;35.72;5.22;;;;;;;;;;5058558;28;20045;-64
2022/04/07 02:38:35;;;;;;;37.15;5.88;;;9.20;99.90;;;;;;5071365;28;20447;-64
2022/04/07 02:41:02;;;;;;;40.00;5.32;;;;;;;;;;5066865;28;20388;-64
2022/04/07 02:43:28;;;;;;;38.40;5.47;;;;;;;;;;5052714;28;20082;-64
2022/04/07 02:45:54;;;;;;;53.88;7.65;;;;;;;;;;5064738;28;20052;-64
2022/04/07 02:48:21;;;;;;;37.30;5.10;;;;;;;;;;5068373;28;20036;-64
2022/04/07 02:50:47;;;;;;;44.45;5.32;;;;;;;;;;5051942;28;20093;-64
2022/04/07 02:53:14;;;;;;;38.05;5.50;;;;;;;;;;5069693;28;20051;-64
2022/04/07 02:55:40;;;;;;;35.70;5.53;;;;;;;;;;5069784;28;20045;-64
2022/04/07 02:58:06;;;;;;;30.85;5.28;;;;;;;;;;5054467;28;20087;-65
2022/04/07 03:00:32;;;;;;;36.22;5.13;;;;;;;;;;5055079;28;20486;-64
2022/04/07 03:02:59;;;;;;;39.38;5.78;;;;;;;;;;5065592;28;20430;-64
2022/04/07 03:05:25;;;;;;;33.88;5.40;;;;;;;;;;5069333;28;20032;-64
2022/04/07 03:07:51;;;;;;;45.85;4.68;;;;;;;;;;5063271;28;20040;-64
2022/04/07 03:10:17;;;;;;;33.58;5.38;;;;;;;;;;5054099;28;20045;-64
2022/04/07 03:12:43;;;;;;;53.50;7.88;;;;;;;;;;5059877;28;20037;-64
2022/04/07 03:15:09;;;;;;;43.65;5.13;;;9.90;99.90;;;;;;5051399;28;20045;-64
2022/04/07 03:17:35;;;;;;;45.60;6.03;;;;;;;;;;5062773;28;20045;-64
2022/04/07 03:20:02;;;;;;;42.78;5.85;;;;;;;;;;5073188;28;20387;-64
2022/04/07 03:22:28;;;;;;;37.50;5.20;;;;;;;;;;5072098;28;20148;-65
2022/04/07 03:24:54;;;;;;;27.40;3.95;;;;;;;;;;5069500;28;20110;-64
2022/04/07 03:27:20;;;;;;;45.17;4.72;;;;;;;;;;5062517;28;20044;-64
2022/04/07 03:29:46;;;;;;;39.83;6.07;;;;;;;;;;5073320;28;20511;-64
2022/04/07 03:32:12;;;;;;;36.25;5.63;;;;;;;;;;5067713;28;20032;-64
2022/04/07 03:34:38;;;;;;;36.22;5.80;;;;;;;;;;5056275;28;20056;-64
2022/04/07 03:37:05;;;;;;;34.10;5.03;;;9.50;99.90;;;;;;5056543;28;20044;-66
2022/04/07 03:39:31;;;;;;;35.78;4.90;;;10.30;99.90;;;;;;5056443;28;20432;-64
2022/04/07 03:41:57;;;;;;;41.55;5.35;;;;;;;;;;5060220;28;20079;-64
2022/04/07 03:44:23;;;;;;;37.97;6.88;;;;;;;;;;5073995;28;21354;-64
2022/04/07 03:46:49;;;;;;;47.08;6.35;;;;;;;;;;5070376;28;20033;-64
2022/04/07 03:49:16;;;;;;;35.88;4.47;;;;;;;;;;5057361;28;20037;-64
2022/04/07 03:51:42;;;;;;;35.30;6.25;;;;;;;;;;5058719;28;20484;-64
2022/04/07 03:54:08;;;;;;;48.03;6.13;;;;;;;;;;5060227;28;20412;-64
2022/04/07 03:56:34;;;;;;;44.90;4.90;;;;;;;;;;5066014;28;20032;-64
2022/04/07 03:59:00;;;;;;;35.95;5.82;;;;;;;;;;5054430;28;20045;-64
2022/04/07 04:01:26;;;;;;;43.35;6.90;;;9.20;99.90;;;;;;5055940;28;20084;-64
2022/04/07 04:03:53;;;;;;;56.03;6.70;;;;;;;;;;5072077;28;20092;-63
2022/04/07 04:06:19;;;;;;;47.47;6.45;;;;;;;;;;5061555;28;20052;-64
2022/04/07 04:08:45;;;;;;;48.60;6.68;;;;;;;;;;5059371;28;20481;-64
2022/04/07 04:11:12;;;;;;;41.10;5.80;;;;;;;;;;5055792;28;20400;-64
2022/04/07 04:13:39;;;;;;;49.63;6.32;;;;;;;;;;5068982;28;20041;-64
2022/04/07 04:16:05;;;;;;;45.28;5.40;;;;;;;;;;5072317;28;20566;-63
2022/04/07 04:18:31;;;;;;;52.22;6.65;;;;;;;;;;5066069;28;20384;-63
2022/04/07 04:20:57;;;;;;;63.03;8.10;;;;;;;;;;5055622;28;20341;-64
2022/04/07 04:23:23;;;;;;;71.15;7.80;;;;;;;;;;5062480;28;20045;-64
2022/04/07 04:25:49;;;;;;;56.83;7.80;;;;;;;;;;5064998;28;20044;-64
2022/04/07 04:28:15;;;;;;;48.90;6.82;;;;;;;;;;5065704;28;20041;-64
2022/04/07 04:30:42;;;;;;;58.63;8.07;;;;;;;;;;5054848;28;20354;-64
2022/04/07 04:33:07;;;;;;;57.25;6.93;;;9.90;99.90;;;;;;5062937;28;20499;-64
2022/04/07 04:35:33;;;;;;;75.60;8.27;;;;;;;;;;5067232;28;20077;-64
2022/04/07 04:37:59;;;;;;;55.08;6.85;;;;;;;;;;5066844;28;20041;-63
2022/04/07 04:40:26;;;;;;;63.33;6.75;;;;;;;;;;5055060;28;20037;-63
2022/04/07 04:42:52;;;;;;;60.58;8.68;;;;;;;;;;5056568;28;20033;-64
2022/04/07 04:45:18;;;;;;;60.33;8.40;;;;;;;;;;5054896;28;20099;-64
2022/04/07 04:47:43;;;;;;;59.78;9.00;;;9.30;99.90;;;;;;5071488;28;20041;-63
2022/04/07 04:50:12;;;;;;;52.42;7.38;;;;;;;;;;5057835;28;20048;-63
2022/04/07 04:52:39;;;;;;;45.13;5.63;;;;;;;;;;5056001;28;20047;-64
2022/04/07 04:55:05;;;;;;;46.63;5.90;;;10.00;99.90;;;;;;5070128;28;20040;-64
2022/04/07 04:57:31;;;;;;;51.97;6.43;;;;;;;;;;5061802;28;20095;-64
2022/04/07 04:59:57;;;;;;;40.42;5.97;;;;;;;;;;5057094;28;20136;-64
2022/04/07 05:02:23;;;;;;;42.83;5.78;;;;;;;;;;5056061;28;20481;-64
2022/04/07 05:04:49;;;;;;;40.83;5.93;;;;;;;;;;5069111;28;20395;-64
2022/04/07 05:07:15;;;;;;;30.52;4.18;;;;;;;;;;5055786;28;20106;-64
2022/04/07 05:09:41;;;;;;;26.40;4.65;;;;;;;;;;5065248;28;20124;-64
2022/04/07 05:12:07;;;;;;;23.55;3.47;;;;;;;;;;5054850;28;20037;-64
2022/04/07 05:14:33;;;;;;;29.20;3.55;;;;;;;;;;5066817;28;20055;-64
2022/04/07 05:16:59;;;;;;;21.15;2.60;;;;;;;;;;5066921;28;20064;-66
2022/04/07 05:19:25;;;;;;;19.20;2.20;;;;;;;;;;5059893;28;20041;-67
2022/04/07 05:21:51;;;;;;;21.75;2.95;;;;;;;;;;5062532;28;20036;-66
2022/04/07 05:24:18;;;;;;;14.30;2.75;;;;;;;;;;5063321;28;20048;-66
2022/04/07 05:26:45;;;;;;;11.80;2.00;;;7.80;99.90;;;;;;5064037;28;20495;-67
2022/04/07 05:29:11;;;;;;;16.33;2.10;;;;;;;;;;5066148;28;20034;-67
2022/04/07 05:31:37;;;;;;;9.20;1.60;;;;;;;;;;5065486;28;20120;-67
2022/04/07 05:34:03;;;;;;;11.10;2.03;;;;;;;;;;5065968;28;20044;-67
2022/04/07 05:36:29;;;;;;;8.00;2.08;;;;;;;;;;5072056;28;20040;-66
2022/04/07 05:38:55;;;;;;;13.45;3.15;;;;;;;;;;5067169;28;20446;-66
2022/04/07 05:41:21;;;;;;;13.23;2.30;;;;;;;;;;5069607;28;20408;-65
2022/04/07 05:43:47;;;;;;;10.48;1.63;;;;;;;;;;5057679;28;20123;-65
2022/04/07 05:46:13;;;;;;;9.10;1.60;;;;;;;;;;5056650;28;20044;-65
2022/04/07 05:48:39;;;;;;;11.10;1.90;;;6.90;99.90;;;;;;5067581;28;20036;-65
2022/04/07 05:51:05;;;;;;;10.07;2.17;;;;;;;;;;5070628;28;20394;-65
2022/04/07 05:53:31;;;;;;;5.03;1.60;;;;;;;;;;5061915;28;20448;-65
2022/04/07 05:55:58;;;;;;;9.68;2.00;;;6.90;99.90;;;;;;5070393;28;20040;-65
2022/04/07 05:58:24;;;;;;;15.57;1.80;;;;;;;;;;5062840;28;20131;-65
2022/04/07 06:00:51;;;;;;;18.17;3.53;;;;;;;;;;5052504;28;20036;-64
2022/04/07 06:03:17;;;;;;;14.63;2.15;;;;;;;;;;5058931;28;20048;-64
2022/04/07 06:05:43;;;;;;;10.82;2.38;;;;;;;;;;5063324;28;20044;-65
2022/04/07 06:08:09;;;;;;;9.68;3.00;;;;;;;;;;5055833;28;20040;-65
2022/04/07 06:10:36;;;;;;;7.65;1.90;;;;;;;;;;5053429;28;20072;-65
2022/04/07 06:13:02;;;;;;;13.40;2.10;;;;;;;;;;5054894;28;20095;-65
2022/04/07 06:15:29;;;;;;;8.80;1.85;;;;;;;;;;5071415;28;20534;-64
2022/04/07 06:17:55;;;;;;;15.25;2.03;;;;;;;;;;5069232;28;20033;-65
2022/04/07 06:20:21;;;;;;;10.95;1.88;;;;;;;;;;5056801;28;20064;-65
2022/04/07 06:22:48;;;;;;;11.55;1.70;;;;;;;;;;5053603;28;20045;-64
2022/04/07 06:25:14;;;;;;;6.47;1.75;;;;;;;;;;5065256;28;20119;-64
2022/04/07 06:27:41;;;;;;;13.93;1.98;;;6.70;99.90;;;;;;5056145;28;20120;-65
2022/04/07 06:30:11;;;;;;;9.88;1.60;;;;;;;;;;5066395;28;20085;-65
2022/04/07 06:32:37;;;;;;;12.07;2.00;;;;;;;;;;5060602;28;20036;-65
2022/04/07 06:35:04;;;;;;;19.08;2.83;;;6.60;99.90;;;;;;5064826;28;20091;-65
2022/04/07 06:37:30;;;;;;;12.25;2.28;;;;;;;;;;5068152;28;20044;-65
2022/04/07 06:40:01;;;;;;;9.23;1.88;;;6.90;99.90;;;;;;5054161;28;20036;-65
2022/04/07 06:42:27;;;;;;;11.35;2.20;;;;;;;;;;5057376;28;20072;-66
2022/04/07 06:44:55;;;;;;;15.55;2.58;;;;;;;;;;5057535;28;20119;-66
2022/04/07 06:47:24;;;;;;;12.50;1.98;;;;;;;;;;5061037;28;20072;-67
2022/04/07 06:49:51;;;;;;;13.60;2.20;;;7.10;99.90;;;;;;5071458;28;20456;-66
2022/04/07 06:52:17;;;;;;;13.55;2.63;;;;;;;;;;5066278;28;20127;-66
2022/04/07 06:54:43;;;;;;;17.17;2.33;;;;;;;;;;5051709;28;20056;-66
2022/04/07 06:57:09;;;;;;;19.10;2.25;;;;;;;;;;5058678;28;20048;-66
2022/04/07 06:59:35;;;;;;;15.00;2.60;;;;;;;;;;5060241;28;20045;-66
2022/04/07 07:02:01;;;;;;;15.90;2.88;;;;;;;;;;5083450;28;20098;-66
2022/04/07 07:04:28;;;;;;;14.02;2.10;;;;;;;;;;5059238;28;20435;-66
2022/04/07 07:06:54;;;;;;;12.43;1.92;;;;;;;;;;5067962;28;20033;-67
2022/04/07 07:09:20;;;;;;;15.82;1.95;;;;;;;;;;5064442;28;20060;-67
2022/04/07 07:11:46;;;;;;;20.83;2.85;;;;;;;;;;5038884;28;20066;-67
2022/04/07 07:14:12;;;;;;;11.52;1.75;;;;;;;;;;5070554;28;20044;-67
2022/04/07 07:16:38;;;;;;;9.25;1.52;;;;;;;;;;5070978;28;20052;-67
2022/04/07 07:19:04;;;;;;;15.43;2.25;;;;;;;;;;5070314;28;20059;-67
2022/04/07 07:21:30;;;;;;;10.52;1.77;;;;;;;;;;5071469;28;20129;-67
2022/04/07 07:23:56;;;;;;;15.35;2.80;;;;;;;;;;5071681;28;20101;-67
2022/04/07 07:26:22;;;;;;;15.02;2.13;;;;;;;;;;5072779;28;20040;-67
2022/04/07 07:28:48;;;;;;;14.68;2.45;;;;;;;;;;5072559;28;20381;-67
2022/04/07 07:31:14;;;;;;;13.63;1.98;;;;;;;;;;5071341;28;20044;-67
2022/04/07 07:33:40;;;;;;;13.45;2.10;;;;;;;;;;5071310;28;20128;-67
2022/04/07 07:36:06;;;;;;;11.40;2.40;;;;;;;;;;5071361;28;20076;-67
2022/04/07 07:38:32;;;;;;;11.20;2.20;;;;;;;;;;5072825;28;20384;-68
2022/04/07 07:40:58;;;;;;;17.65;2.20;;;;;;;;;;5071362;28;20051;-68
2022/04/07 07:43:24;;;;;;;15.30;2.25;;;;;;;;;;5072704;28;20075;-68
2022/04/07 07:45:50;;;;;;;15.98;2.95;;;;;;;;;;5071300;28;20036;-68
2022/04/07 07:48:18;;;;;;;12.90;2.70;;;;;;;;;;5071195;28;20052;-68
2022/04/07 07:50:45;;;;;;;10.23;1.67;;;;;;;;;;5071171;28;20119;-68
2022/04/07 07:53:14;;;;;;;17.50;2.92;;;;;;;;;;5072649;28;20044;-68
2022/04/07 07:55:40;;;;;;;15.77;2.50;;;;;;;;;;5072413;28;20056;-68
2022/04/07 07:58:06;;;;;;;11.85;1.85;;;;;;;;;;5071545;28;20057;-68
2022/04/07 08:00:32;;;;;;;18.77;2.53;;;;;;;;;;5070106;28;20063;-68
2022/04/07 08:02:58;;;;;;;16.58;2.15;;;;;;;;;;5052581;28;20040;-68
2022/04/07 08:05:24;;;;;;;12.45;2.20;;;;;;;;;;5073224;28;20045;-68
2022/04/07 08:07:50;;;;;;;6.30;1.95;;;;;;;;;;5075371;28;20037;-68
2022/04/07 08:10:16;;;;;;;13.57;3.10;;;;;;;;;;5076022;28;20123;-68
2022/04/07 08:12:42;;;;;;;12.75;2.00;;;7.90;99.90;;;;;;5076168;28;20086;-68
2022/04/07 08:15:09;;;;;;;16.10;2.20;;;;;;;;;;5074572;28;20056;-68
2022/04/07 08:17:36;;;;;;;16.98;2.53;;;;;;;;;;5076177;28;20106;-68
2022/04/07 08:20:03;;;;;;;14.88;2.40;;;8.60;99.90;;;;;;5074658;28;20496;-68
2022/04/07 08:22:30;;;;;;;14.52;2.92;;;;;;;;;;5074641;28;20119;-68
2022/04/07 08:24:56;;;;;;;20.23;2.45;;;;;;;;;;5074731;28;20123;-68
2022/04/07 08:27:26;;;;;;;16.00;2.63;;;;;;;;;;5074219;28;20049;-68
2022/04/07 08:29:52;;;;;;;18.15;1.92;;;9.10;99.90;;;;;;5075516;28;20040;-68
2022/04/07 08:32:18;;;;;;;12.07;2.40;;;;;;;;;;5075738;28;20047;-68
2022/04/07 08:34:45;;;;;;;15.38;2.00;;;;;;;;;;5074587;28;20048;-68
2022/04/07 08:37:12;;;;;;;10.40;1.70;;;;;;;;;;5075402;28;20554;-68
2022/04/07 08:39:38;;;;;;;17.80;2.80;;;;;;;;;;5074158;28;20033;-68
2022/04/07 08:42:05;;;;;;;18.83;3.10;;;9.20;99.90;;;;;;5075582;28;20245;-68
2022/04/07 08:44:31;;;;;;;14.10;3.08;;;;;;;;;;5073912;28;20040;-68
2022/04/07 08:46:58;;;;;;;13.27;2.20;;;;;;;;;;5073847;28;20079;-68
2022/04/07 08:49:25;;;;;;;19.75;2.83;;;9.40;99.90;;;;;;5073917;28;20464;-68
2022/04/07 08:51:52;;;;;;;16.10;2.03;;;9.20;99.90;;;;;;5075043;28;20086;-68
2022/04/07 08:54:22;;;;;;;17.83;4.13;;;9.60;99.90;;;;;;5075208;28;20036;-68
2022/04/07 08:56:48;;;;;;;19.05;2.65;;;9.50;99.90;;;;;;5073825;28;20119;-68
2022/04/07 08:59:14;;;;;;;21.10;2.17;;;;;;;;;;5073677;28;20127;-68
2022/04/07 09:01:41;;;;;;;20.17;2.63;;;;;;;;;;5074556;28;20052;-68
2022/04/07 09:04:07;;;;;;;17.52;3.58;;;;;;;;;;5074929;28;20032;-68
2022/04/07 09:06:38;;;;;;;13.10;2.15;;;9.40;99.90;;;;;;5073557;28;20044;-68
2022/04/07 09:09:17;;;;;;;16.55;2.88;;;9.50;99.90;;;;;;5075016;28;20040;-68
2022/04/07 09:11:43;;;;;;;16.98;2.70;;;;;;;;;;5074801;28;20033;-68
2022/04/07 09:14:10;;;;;;;16.35;3.97;;;9.60;99.90;;;;;;5073387;28;20396;-68
2022/04/07 09:16:40;;;;;;;15.82;2.33;;;9.70;99.90;;;;;;5074676;28;20055;-68
2022/04/07 09:19:08;;;;;;;19.15;2.60;;;;;;;;;;5074877;28;20044;-70
2022/04/07 09:21:34;;;;;;;23.05;2.80;;;;;;;;;;5071742;28;20123;-68
2022/04/07 09:24:05;;;;;;;20.20;3.00;;;;;;;;;;5060998;28;20041;-68
2022/04/07 09:26:31;;;;;;;20.50;2.70;;;;;;;;;;5057174;28;20104;-68
2022/04/07 09:28:57;;;;;;;20.10;3.47;;;9.40;99.90;;;;;;5072694;28;20040;-68
2022/04/07 09:31:23;;;;;;;16.23;2.72;;;;;;;;;;5072465;28;20033;-68
2022/04/07 09:33:54;;;;;;;14.25;2.17;;;9.70;99.90;;;;;;5071119;28;20059;-68
2022/04/07 09:36:21;;;;;;;22.40;3.42;;;;;;;;;;5073641;28;20505;-68
2022/04/07 09:38:51;;;;;;;23.38;2.75;;;;;;;;;;5052860;28;20385;-68
2022/04/07 09:41:20;;;;;;;17.75;2.38;;;;;;;;;;5053922;28;20048;-68
2022/04/07 09:43:58;;;;;;;14.32;2.50;;;9.40;99.90;;;;;;5071080;28;20096;-68
2022/04/07 09:46:24;;;;;;;15.80;2.25;;;;;;;;;;5071417;28;20037;-68
2022/04/07 09:49:09;;;;;;;18.42;2.28;;;;;;;;;;5069975;28;20032;-67
2022/04/07 09:51:46;;;;;;;17.13;2.60;;;9.80;99.90;;;;;;5069774;28;20367;-67
2022/04/07 09:54:13;;;;;;;14.95;2.90;;;;;;;;;;5071672;28;20039;-67
2022/04/07 09:56:40;;;;;;;13.45;2.40;;;;;;;;;;5071285;28;20072;-67
2022/04/07 09:59:07;;;;;;;21.27;3.83;;;;;;;;;;5071914;28;20059;-67
2022/04/07 10:01:34;;;;;;;18.10;2.60;;;;;;;;;;5073278;28;20036;-67
2022/04/07 10:04:01;;;;;;;18.23;3.03;;;;;;;;;;5072661;28;20036;-67
2022/04/07 10:06:28;;;;;;;24.35;3.33;;;;;;;;;;5070857;28;20036;-67
2022/04/07 10:08:54;;;;;;;23.92;3.13;;;;;;;;;;5071316;28;20032;-68
2022/04/07 10:11:20;;;;;;;27.88;4.03;;;;;;;;;;5063994;28;20036;-68
2022/04/07 10:13:46;;;;;;;20.52;3.80;;;;;;;;;;5068227;28;20483;-68
2022/04/07 10:16:15;;;;;;;32.40;3.78;;;;;;;;;;5051760;28;20040;-67
2022/04/07 10:18:54;;;;;;;28.55;4.30;;;9.30;99.90;;;;;;5071386;28;20047;-67
2022/04/07 10:21:58;;;;;;;35.97;4.90;;;9.20;99.90;;;;;;5071482;28;20094;-67
2022/04/07 10:24:28;;;;;;;29.50;4.43;;;;;;;;;;5070851;28;20044;-64
2022/04/07 10:26:55;;;;;;;23.60;3.92;;;9.40;99.90;;;;;;5069297;28;20484;-65
2022/04/07 10:29:22;;;;;;;24.08;3.63;;;9.40;99.90;;;;;;5054770;28;20049;-64
2022/04/07 10:32:19;;;;;;;20.65;3.00;;;9.50;99.90;;;;;;5071529;28;20037;-65
2022/04/07 10:34:55;;;;;;;20.83;2.47;;;9.60;99.90;;;;;;5053761;28;20120;-65
2022/04/07 10:37:31;;;;;;;22.58;3.65;;;9.40;99.90;;;;;;5069144;28;20047;-65
2022/04/07 10:39:57;;;;;;;23.08;3.30;;;;;;;;;;5070872;28;20075;-65
2022/04/07 10:42:52;;;;;;;22.55;3.90;;;;;;;;;;5070056;28;20036;-65
2022/04/07 10:45:30;;;;;;;34.67;4.80;;;;;;;;;;5084305;28;20384;-65
2022/04/07 10:48:16;;;;;;;36.55;4.10;;;9.80;99.90;;;;;;5069261;28;20358;-65
2022/04/07 10:50:51;;;;;;;24.50;3.30;;;10.00;99.90;;;;;;5071052;28;20397;-64
2022/04/07 10:53:21;;;;;;;24.52;3.78;;;10.10;99.90;;;;;;5069951;28;20051;-65
2022/04/07 10:55:54;;;;;;;24.50;3.55;;;;;;;;;;5072100;28;20052;-65
2022/04/07 10:58:21;;;;;;;15.85;2.50;;;;;;;;;;5065547;28;20053;-65
2022/04/07 11:00:47;;;;;;;20.40;3.10;;;9.30;99.90;;;;;;5071305;28;20047;-65
2022/04/07 11:03:17;;;;;;;27.38;3.03;;;10.30;99.90;;;;;;5071013;28;20115;-65
2022/04/07 11:05:53;;;;;;;25.63;3.85;;;10.10;99.90;;;;;;5066509;28;20041;-65
2022/04/07 11:08:22;;;;;;;32.95;3.75;;;9.90;99.90;;;;;;5068908;28;20048;-65
2022/04/07 11:10:50;;;;;;;25.90;4.00;;;;;;;;;;5073015;28;20115;-65
2022/04/07 11:13:17;;;;;;;23.90;3.47;;;;;;;;;;5068123;28;20309;-65
2022/04/07 11:15:47;;;;;;;18.65;4.30;;;;;;;;;;5070873;28;20032;-65
2022/04/07 11:18:22;;;;;;;24.50;3.97;;;10.20;99.90;;;;;;5070758;28;20064;-65
2022/04/07 11:21:02;;;;;;;19.92;3.95;;;10.10;99.90;;;;;;5069808;28;20068;-65
2022/04/07 11:23:56;;;;;;;27.15;3.55;;;10.50;99.90;;;;;;5068491;28;20036;-65
2022/04/07 11:26:27;;;;;;;20.20;2.67;;;10.30;99.90;;;;;;5067152;28;20056;-65
2022/04/07 11:29:03;;;;;;;23.63;4.05;;;;;;;;;;5068553;28;20083;-65
2022/04/07 11:31:45;;;;;;;16.50;3.30;;;10.90;99.70;;;;;;5069515;28;20044;-65
2022/04/07 11:34:35;;;;;;;21.55;3.53;;;10.70;99.50;;;;;;5070426;28;20037;-65
2022/04/07 11:37:06;;;;;;;22.40;3.05;;;;;;;;;;5068617;28;20091;-65
2022/04/07 11:39:33;;;;;;;24.63;3.75;;;10.90;99.30;;;;;;5072642;28;20033;-65
2022/04/07 11:42:00;;;;;;;20.90;2.85;;;10.70;98.60;;;;;;5074928;28;20043;-65
2022/04/07 11:44:26;;;;;;;20.50;4.30;;;;;;;;;;5055256;28;20511;-65
2022/04/07 11:46:52;;;;;;;20.67;4.00;;;10.20;99.90;;;;;;5074806;28;20040;-65
2022/04/07 11:49:19;;;;;;;22.25;4.80;;;10.60;98.40;;;;;;5038894;28;20485;-65
2022/04/07 11:51:46;;;;;;;18.77;2.53;;;;;;;;;;5057088;28;20043;-65
2022/04/07 11:54:16;;;;;;;27.02;3.10;;;10.30;99.10;;;;;;5071685;28;20504;-65
2022/04/07 11:56:43;;;;;;;18.98;2.90;;;;;;;;;;5073747;28;20166;-64
2022/04/07 11:59:10;;;;;;;7.70;2.13;;;10.20;99.90;;;;;;5072683;28;20048;-64
2022/04/07 12:01:37;;;;;;;25.45;3.63;;;9.50;99.90;;;;;;5075567;28;20024;-64
2022/04/07 12:04:06;;;;;;;28.67;3.35;;;9.50;99.90;;;;;;5067420;28;20037;-65
2022/04/07 12:06:34;;;;;;;16.05;3.72;;;9.70;99.90;;;;;;5057111;28;20036;-64
2022/04/07 12:09:02;;;;;;;17.15;2.80;;;9.70;99.90;;;;;;5072880;28;20048;-64
2022/04/07 12:11:31;;;;;;;19.83;2.42;;;10.00;99.90;;;;;;5069130;28;20033;-65
2022/04/07 12:13:58;;;;;;;13.48;2.50;;;9.80;99.90;;;;;;5073052;28;20513;-65
2022/04/07 12:16:26;;;;;;;19.88;2.50;;;;;;;;;;5073176;28;20101;-65
2022/04/07 12:18:53;;;;;;;18.65;3.35;;;9.70;99.90;;;;;;5073348;28;20071;-65
2022/04/07 12:21:19;;;;;;;18.50;4.45;;;;;;;;;;5054981;28;20114;-65
2022/04/07 12:23:47;;;;;;;25.23;4.18;;;;;;;;;;5055372;28;20448;-65
2022/04/07 12:26:13;;;;;;;35.97;4.50;;;;;;;;;;5070160;28;20058;-65
2022/04/07 12:28:40;;;;;;;19.50;2.90;;;;;;;;;;5067768;28;20129;-65
2022/04/07 12:31:12;;;;;;;22.80;3.42;;;;;;;;;;5054422;28;20522;-65
2022/04/07 12:33:45;;;;;;;23.52;4.28;;;10.20;99.90;;;;;;5055640;28;20385;-65
2022/04/07 12:36:15;;;;;;;21.88;3.08;;;;;;;;;;5055588;28;20053;-65
2022/04/07 12:38:42;;;;;;;18.02;2.50;;;;;;;;;;5057694;28;20041;-65
2022/04/07 12:41:10;;;;;;;19.45;2.58;;;10.20;99.30;;;;;;5054158;28;20098;-65
2022/04/07 12:43:50;;;;;;;19.27;3.40;;;10.40;98.50;;;;;;5055867;28;20591;-65
2022/04/07 12:46:19;;;;;;;18.25;3.03;;;;;;;;;;5072374;28;20044;-66
2022/04/07 12:49:07;;;;;;;26.60;4.50;;;10.80;99.30;;;;;;5068080;28;20029;-66
2022/04/07 12:51:34;;;;;;;17.73;3.15;;;10.50;98.80;;;;;;5069910;28;20037;-65
2022/04/07 12:54:14;;;;;;;14.68;2.17;;;9.90;98.40;;;;;;5069416;28;20028;-65
2022/04/07 12:56:43;;;;;;;11.57;2.15;;;10.30;99.90;;;;;;5073278;28;20044;-66
2022/04/07 12:59:11;;;;;;;14.90;2.55;;;9.30;99.90;;;;;;5064233;28;20053;-65
2022/04/07 13:01:39;;;;;;;19.50;2.30;;;8.60;99.90;;;;;;5038373;28;20044;-65
2022/04/07 13:04:08;;;;;;;16.15;2.20;;;;;;;;;;5059076;28;20043;-66
2022/04/07 13:06:37;;;;;;;13.77;2.72;;;8.30;99.90;;;;;;5067443;28;20037;-65
2022/04/07 13:09:05;;;;;;;10.30;2.53;;;8.20;99.90;;;;;;5066270;28;20041;-64
2022/04/07 13:11:37;;;;;;;12.93;2.80;;;;;;;;;;5063815;28;20071;-65
2022/04/07 13:14:05;;;;;;;18.90;2.75;;;;;;;;;;5066493;28;20045;-65
2022/04/07 13:16:32;;;;;;;17.83;2.97;;;7.80;99.90;;;;;;5067622;28;20037;-65
2022/04/07 13:18:59;;;;;;;11.27;2.08;;;;;;;;;;5056589;28;20170;-64
2022/04/07 13:21:25;;;;;;;10.18;2.25;;;8.00;99.90;;;;;;5054581;28;20037;-65
2022/04/07 13:23:51;;;;;;;13.25;2.38;;;;;;;;;;5071017;28;20492;-64
2022/04/07 13:26:18;;;;;;;15.85;1.80;;;;;;;;;;5060403;28;20048;-64
2022/04/07 13:28:47;;;;;;;20.50;2.67;;;7.70;99.90;;;;;;5060134;28;20044;-64
2022/04/07 13:31:13;;;;;;;9.48;2.17;;;;;;;;;;5070154;28;20036;-66
2022/04/07 13:33:39;;;;;;;16.00;3.13;;;;;;;;;;5056679;28;20131;-65
2022/04/07 13:36:06;;;;;;;15.90;2.70;;;7.10;99.90;;;;;;5057745;28;20045;-65
2022/04/07 13:38:33;;;;;;;21.67;2.70;;;;;;;;;;5065823;28;20040;-64
2022/04/07 13:41:00;;;;;;;15.38;3.67;;;;;;;;;;5064384;28;20623;-64
2022/04/07 13:43:28;;;;;;;11.02;2.33;;;;;;;;;;5058479;28;20068;-65
2022/04/07 13:45:54;;;;;;;18.50;3.63;;;;;;;;;;5062822;28;20044;-65
2022/04/07 13:48:20;;;;;;;17.77;2.85;;;;;;;;;;5061074;28;20051;-65
2022/04/07 13:50:47;;;;;;;17.60;2.85;;;;;;;;;;5070784;28;20037;-65
2022/04/07 13:53:16;;;;;;;17.20;3.10;;;9.20;99.90;;;;;;5061349;28;20033;-65
2022/04/07 13:55:42;;;;;;;22.23;2.70;;;;;;;;;;5054024;28;20059;-65
2022/04/07 13:58:10;;;;;;;28.48;3.70;;;;;;;;;;5061259;28;20044;-65
2022/04/07 14:00:38;;;;;;;20.35;2.85;;;9.70;99.90;;;;;;5065393;28;20217;-65
2022/04/07 14:03:05;;;;;;;17.42;2.80;;;;;;;;;;5060359;28;20055;-65